sensor_id;sensor_type;location;lat;lon;timestamp;temperature;humidity
4578;DHT22;2301;47.354;8.528;2023-03-14T00:01:59;15.60;82.80
4578;DHT22;2301;47.354;8.528;2023-03-14T00:04:26;15.50;82.10
4578;DHT22;2301;47.354;8.528;2023-03-14T00:06:53;15.50;83.10
4578;DHT22;2301;47.354;8.528;2023-03-14T00:09:21;15.50;82.90
4578;DHT22;2301;47.354;8.528;2023-03-14T00:11:48;15.50;84.40
4578;DHT22;2301;47.354;8.528;2023-03-14T00:14:15;15.50;82.20
4578;DHT22;2301;47.354;8.528;2023-03-14T00:16:45;15.20;79.90
4578;DHT22;2301;47.354;8.528;2023-03-14T00:19:12;15.10;83.10
4578;DHT22;2301;47.354;8.528;2023-03-14T00:21:39;15.10;84.20
4578;DHT22;2301;47.354;8.528;2023-03-14T00:24:07;15.00;82.40
4578;DHT22;2301;47.354;8.528;2023-03-14T00:26:36;15.00;83.20
4578;DHT22;2301;47.354;8.528;2023-03-14T00:29:03;14.90;83.30
4578;DHT22;2301;47.354;8.528;2023-03-14T00:31:30;14.90;83.40
4578;DHT22;2301;47.354;8.528;2023-03-14T00:33:57;14.90;82.60
4578;DHT22;2301;47.354;8.528;2023-03-14T00:36:24;14.80;81.40
4578;DHT22;2301;47.354;8.528;2023-03-14T00:38:51;14.60;80.30
4578;DHT22;2301;47.354;8.528;2023-03-14T00:41:20;14.60;81.80
4578;DHT22;2301;47.354;8.528;2023-03-14T00:43:49;14.70;83.40
4578;DHT22;2301;47.354;8.528;2023-03-14T00:46:19;14.70;83.80
4578;DHT22;2301;47.354;8.528;2023-03-14T00:48:46;14.60;81.50
4578;DHT22;2301;47.354;8.528;2023-03-14T00:51:14;14.50;81.00
4578;DHT22;2301;47.354;8.528;2023-03-14T00:53:41;14.40;81.90
4578;DHT22;2301;47.354;8.528;2023-03-14T00:56:10;14.50;83.40
4578;DHT22;2301;47.354;8.528;2023-03-14T00:58:37;14.40;79.50
4578;DHT22;2301;47.354;8.528;2023-03-14T01:01:10;14.40;80.30
4578;DHT22;2301;47.354;8.528;2023-03-14T01:03:38;14.50;81.80
4578;DHT22;2301;47.354;8.528;2023-03-14T01:06:11;14.50;82.10
4578;DHT22;2301;47.354;8.528;2023-03-14T01:08:38;14.50;81.90
4578;DHT22;2301;47.354;8.528;2023-03-14T01:11:07;14.50;81.00
4578;DHT22;2301;47.354;8.528;2023-03-14T01:13:34;14.50;80.40
4578;DHT22;2301;47.354;8.528;2023-03-14T01:16:02;14.20;78.40
4578;DHT22;2301;47.354;8.528;2023-03-14T01:18:32;13.90;76.30
4578;DHT22;2301;47.354;8.528;2023-03-14T01:21:00;13.60;78.20
4578;DHT22;2301;47.354;8.528;2023-03-14T01:23:27;13.60;80.70
4578;DHT22;2301;47.354;8.528;2023-03-14T01:25:54;13.60;82.00
4578;DHT22;2301;47.354;8.528;2023-03-14T01:28:21;13.60;81.50
4578;DHT22;2301;47.354;8.528;2023-03-14T01:30:48;13.60;82.30
4578;DHT22;2301;47.354;8.528;2023-03-14T01:33:15;13.70;83.60
4578;DHT22;2301;47.354;8.528;2023-03-14T01:35:43;13.80;83.40
4578;DHT22;2301;47.354;8.528;2023-03-14T01:38:10;13.90;82.90
4578;DHT22;2301;47.354;8.528;2023-03-14T01:43:59;13.90;81.50
4578;DHT22;2301;47.354;8.528;2023-03-14T01:46:38;13.90;79.70
4578;DHT22;2301;47.354;8.528;2023-03-14T01:49:15;13.90;78.90
4578;DHT22;2301;47.354;8.528;2023-03-14T01:51:50;13.90;79.60
4578;DHT22;2301;47.354;8.528;2023-03-14T01:54:22;14.00;81.10
4578;DHT22;2301;47.354;8.528;2023-03-14T01:56:52;14.00;80.50
4578;DHT22;2301;47.354;8.528;2023-03-14T01:59:21;14.00;80.20
4578;DHT22;2301;47.354;8.528;2023-03-14T02:01:50;13.90;78.60
4578;DHT22;2301;47.354;8.528;2023-03-14T02:07:45;14.00;81.10
4578;DHT22;2301;47.354;8.528;2023-03-14T02:10:14;14.00;80.30
4578;DHT22;2301;47.354;8.528;2023-03-14T02:12:44;14.00;78.60
4578;DHT22;2301;47.354;8.528;2023-03-14T02:15:11;14.00;80.60
4578;DHT22;2301;47.354;8.528;2023-03-14T02:17:39;14.00;79.70
4578;DHT22;2301;47.354;8.528;2023-03-14T02:20:21;13.90;77.10
4578;DHT22;2301;47.354;8.528;2023-03-14T02:22:51;13.90;77.40
4578;DHT22;2301;47.354;8.528;2023-03-14T02:25:26;13.70;76.60
4578;DHT22;2301;47.354;8.528;2023-03-14T02:27:57;13.70;77.60
4578;DHT22;2301;47.354;8.528;2023-03-14T02:30:28;13.70;77.90
4578;DHT22;2301;47.354;8.528;2023-03-14T02:32:59;13.70;79.40
4578;DHT22;2301;47.354;8.528;2023-03-14T02:35:31;13.60;76.80
4578;DHT22;2301;47.354;8.528;2023-03-14T02:38:02;13.60;77.80
4578;DHT22;2301;47.354;8.528;2023-03-14T02:40:30;13.60;77.10
4578;DHT22;2301;47.354;8.528;2023-03-14T02:42:59;13.60;78.10
4578;DHT22;2301;47.354;8.528;2023-03-14T02:45:37;13.70;78.80
4578;DHT22;2301;47.354;8.528;2023-03-14T02:48:07;13.70;78.00
4578;DHT22;2301;47.354;8.528;2023-03-14T02:50:35;13.80;78.90
4578;DHT22;2301;47.354;8.528;2023-03-14T02:53:02;13.80;76.60
4578;DHT22;2301;47.354;8.528;2023-03-14T02:55:29;13.70;77.50
4578;DHT22;2301;47.354;8.528;2023-03-14T02:57:56;13.70;77.70
4578;DHT22;2301;47.354;8.528;2023-03-14T03:00:25;13.80;79.70
4578;DHT22;2301;47.354;8.528;2023-03-14T03:02:52;13.90;78.60
4578;DHT22;2301;47.354;8.528;2023-03-14T03:05:19;13.80;76.70
4578;DHT22;2301;47.354;8.528;2023-03-14T03:07:46;13.80;78.90
4578;DHT22;2301;47.354;8.528;2023-03-14T03:10:13;13.90;78.70
4578;DHT22;2301;47.354;8.528;2023-03-14T03:12:40;13.90;78.40
4578;DHT22;2301;47.354;8.528;2023-03-14T03:15:08;14.00;77.70
4578;DHT22;2301;47.354;8.528;2023-03-14T03:17:36;14.10;78.60
4578;DHT22;2301;47.354;8.528;2023-03-14T03:20:07;13.90;75.70
4578;DHT22;2301;47.354;8.528;2023-03-14T03:22:35;13.80;75.10
4578;DHT22;2301;47.354;8.528;2023-03-14T03:25:02;13.90;77.50
4578;DHT22;2301;47.354;8.528;2023-03-14T03:27:30;13.90;76.80
4578;DHT22;2301;47.354;8.528;2023-03-14T03:29:57;14.00;78.00
4578;DHT22;2301;47.354;8.528;2023-03-14T03:32:24;14.10;78.00
4578;DHT22;2301;47.354;8.528;2023-03-14T03:34:52;14.10;76.50
4578;DHT22;2301;47.354;8.528;2023-03-14T03:37:19;14.10;76.10
4578;DHT22;2301;47.354;8.528;2023-03-14T03:39:46;14.10;76.30
4578;DHT22;2301;47.354;8.528;2023-03-14T03:42:13;14.20;77.30
4578;DHT22;2301;47.354;8.528;2023-03-14T03:44:40;14.30;77.30
4578;DHT22;2301;47.354;8.528;2023-03-14T03:47:07;14.30;76.10
4578;DHT22;2301;47.354;8.528;2023-03-14T03:49:34;14.30;75.60
4578;DHT22;2301;47.354;8.528;2023-03-14T03:52:02;14.30;74.60
4578;DHT22;2301;47.354;8.528;2023-03-14T03:54:29;14.20;74.10
4578;DHT22;2301;47.354;8.528;2023-03-14T03:56:56;14.20;75.20
4578;DHT22;2301;47.354;8.528;2023-03-14T03:59:23;14.20;75.70
4578;DHT22;2301;47.354;8.528;2023-03-14T04:01:50;14.20;75.00
4578;DHT22;2301;47.354;8.528;2023-03-14T04:04:17;14.10;73.10
4578;DHT22;2301;47.354;8.528;2023-03-14T04:06:44;14.20;75.20
4578;DHT22;2301;47.354;8.528;2023-03-14T04:09:12;14.20;75.10
4578;DHT22;2301;47.354;8.528;2023-03-14T04:11:39;14.30;75.30
4578;DHT22;2301;47.354;8.528;2023-03-14T04:14:06;14.40;76.20
4578;DHT22;2301;47.354;8.528;2023-03-14T04:16:33;14.50;75.60
4578;DHT22;2301;47.354;8.528;2023-03-14T04:19:00;14.40;74.90
4578;DHT22;2301;47.354;8.528;2023-03-14T04:21:27;14.40;73.60
4578;DHT22;2301;47.354;8.528;2023-03-14T04:23:54;14.30;73.80
4578;DHT22;2301;47.354;8.528;2023-03-14T04:26:22;14.30;74.40
4578;DHT22;2301;47.354;8.528;2023-03-14T04:32:11;14.10;73.00
4578;DHT22;2301;47.354;8.528;2023-03-14T04:34:38;14.00;73.20
4578;DHT22;2301;47.354;8.528;2023-03-14T04:37:05;14.00;71.30
4578;DHT22;2301;47.354;8.528;2023-03-14T04:39:32;14.00;72.50
4578;DHT22;2301;47.354;8.528;2023-03-14T04:42:00;13.90;72.20
4578;DHT22;2301;47.354;8.528;2023-03-14T04:44:27;13.90;73.40
4578;DHT22;2301;47.354;8.528;2023-03-14T04:46:54;13.90;73.70
4578;DHT22;2301;47.354;8.528;2023-03-14T04:49:21;13.90;73.60
4578;DHT22;2301;47.354;8.528;2023-03-14T04:51:48;14.00;73.30
4578;DHT22;2301;47.354;8.528;2023-03-14T04:54:16;14.00;73.30
4578;DHT22;2301;47.354;8.528;2023-03-14T04:56:43;14.00;73.60
4578;DHT22;2301;47.354;8.528;2023-03-14T04:59:11;14.00;73.60
4578;DHT22;2301;47.354;8.528;2023-03-14T05:01:38;14.00;72.90
4578;DHT22;2301;47.354;8.528;2023-03-14T05:04:06;13.90;72.20
4578;DHT22;2301;47.354;8.528;2023-03-14T05:06:33;14.00;73.00
4578;DHT22;2301;47.354;8.528;2023-03-14T05:09:00;13.90;71.20
4578;DHT22;2301;47.354;8.528;2023-03-14T05:11:30;13.90;72.30
4578;DHT22;2301;47.354;8.528;2023-03-14T05:13:58;13.90;71.20
4578;DHT22;2301;47.354;8.528;2023-03-14T05:16:27;13.90;71.50
4578;DHT22;2301;47.354;8.528;2023-03-14T05:18:54;13.90;70.90
4578;DHT22;2301;47.354;8.528;2023-03-14T05:21:21;13.80;69.30
4578;DHT22;2301;47.354;8.528;2023-03-14T05:23:48;13.90;72.30
4578;DHT22;2301;47.354;8.528;2023-03-14T05:26:15;14.00;70.90
4578;DHT22;2301;47.354;8.528;2023-03-14T05:28:42;13.90;69.00
4578;DHT22;2301;47.354;8.528;2023-03-14T05:31:10;13.80;68.10
4578;DHT22;2301;47.354;8.528;2023-03-14T05:33:39;13.90;70.20
4578;DHT22;2301;47.354;8.528;2023-03-14T05:36:07;13.90;71.00
4578;DHT22;2301;47.354;8.528;2023-03-14T05:38:34;13.90;69.60
4578;DHT22;2301;47.354;8.528;2023-03-14T05:41:01;13.90;68.70
4578;DHT22;2301;47.354;8.528;2023-03-14T05:43:27;13.90;69.90
4578;DHT22;2301;47.354;8.528;2023-03-14T05:45:54;13.90;69.90
4578;DHT22;2301;47.354;8.528;2023-03-14T05:48:21;13.90;70.20
4578;DHT22;2301;47.354;8.528;2023-03-14T05:50:54;13.90;70.70
4578;DHT22;2301;47.354;8.528;2023-03-14T05:53:21;14.00;71.10
4578;DHT22;2301;47.354;8.528;2023-03-14T05:55:51;14.00;69.30
4578;DHT22;2301;47.354;8.528;2023-03-14T05:58:18;13.80;67.90
4578;DHT22;2301;47.354;8.528;2023-03-14T06:00:45;13.70;66.90
4578;DHT22;2301;47.354;8.528;2023-03-14T06:03:12;13.60;67.60
4578;DHT22;2301;47.354;8.528;2023-03-14T06:05:39;13.60;69.60
4578;DHT22;2301;47.354;8.528;2023-03-14T06:08:07;13.70;70.00
4578;DHT22;2301;47.354;8.528;2023-03-14T06:10:35;13.70;69.20
4578;DHT22;2301;47.354;8.528;2023-03-14T06:13:03;13.60;66.90
4578;DHT22;2301;47.354;8.528;2023-03-14T06:15:30;13.50;67.40
4578;DHT22;2301;47.354;8.528;2023-03-14T06:17:58;13.40;69.30
4578;DHT22;2301;47.354;8.528;2023-03-14T06:20:25;13.30;70.80
4578;DHT22;2301;47.354;8.528;2023-03-14T06:22:52;13.30;72.60
4578;DHT22;2301;47.354;8.528;2023-03-14T06:25:20;13.40;72.40
4578;DHT22;2301;47.354;8.528;2023-03-14T06:27:48;13.40;72.10
4578;DHT22;2301;47.354;8.528;2023-03-14T06:30:18;13.50;72.30
4578;DHT22;2301;47.354;8.528;2023-03-14T06:32:48;13.50;72.60
4578;DHT22;2301;47.354;8.528;2023-03-14T06:35:18;13.40;72.10
4578;DHT22;2301;47.354;8.528;2023-03-14T06:37:46;13.40;71.50
4578;DHT22;2301;47.354;8.528;2023-03-14T06:40:13;13.50;72.30
4578;DHT22;2301;47.354;8.528;2023-03-14T06:42:44;13.50;72.90
4578;DHT22;2301;47.354;8.528;2023-03-14T06:45:12;13.50;70.30
4578;DHT22;2301;47.354;8.528;2023-03-14T06:47:39;13.50;71.20
4578;DHT22;2301;47.354;8.528;2023-03-14T06:50:07;13.50;72.60
4578;DHT22;2301;47.354;8.528;2023-03-14T06:52:35;13.70;72.80
4578;DHT22;2301;47.354;8.528;2023-03-14T06:55:03;13.60;70.60
4578;DHT22;2301;47.354;8.528;2023-03-14T06:57:30;13.70;71.90
4578;DHT22;2301;47.354;8.528;2023-03-14T06:59:58;13.80;72.30
4578;DHT22;2301;47.354;8.528;2023-03-14T07:02:25;13.90;71.90
4578;DHT22;2301;47.354;8.528;2023-03-14T07:04:52;13.90;71.20
4578;DHT22;2301;47.354;8.528;2023-03-14T07:07:19;13.90;71.50
4578;DHT22;2301;47.354;8.528;2023-03-14T07:09:46;13.80;72.10
4578;DHT22;2301;47.354;8.528;2023-03-14T07:12:13;13.80;72.60
4578;DHT22;2301;47.354;8.528;2023-03-14T07:14:39;13.80;72.40
4578;DHT22;2301;47.354;8.528;2023-03-14T07:17:08;13.80;71.80
4578;DHT22;2301;47.354;8.528;2023-03-14T07:19:34;13.80;72.20
4578;DHT22;2301;47.354;8.528;2023-03-14T07:22:03;13.80;72.40
4578;DHT22;2301;47.354;8.528;2023-03-14T07:24:30;13.90;72.30
4578;DHT22;2301;47.354;8.528;2023-03-14T07:26:57;13.90;71.50
4578;DHT22;2301;47.354;8.528;2023-03-14T07:29:25;14.00;72.50
4578;DHT22;2301;47.354;8.528;2023-03-14T07:31:52;14.20;74.60
4578;DHT22;2301;47.354;8.528;2023-03-14T07:34:20;14.20;72.10
4578;DHT22;2301;47.354;8.528;2023-03-14T07:36:47;14.20;72.40
4578;DHT22;2301;47.354;8.528;2023-03-14T07:39:14;14.00;70.70
4578;DHT22;2301;47.354;8.528;2023-03-14T07:41:41;13.90;71.80
4578;DHT22;2301;47.354;8.528;2023-03-14T07:44:08;13.90;69.10
4578;DHT22;2301;47.354;8.528;2023-03-14T07:46:35;13.70;66.20
4578;DHT22;2301;47.354;8.528;2023-03-14T07:49:02;13.60;65.80
4578;DHT22;2301;47.354;8.528;2023-03-14T07:51:30;13.40;65.90
4578;DHT22;2301;47.354;8.528;2023-03-14T07:53:57;13.70;71.10
4578;DHT22;2301;47.354;8.528;2023-03-14T07:56:24;13.70;66.90
4578;DHT22;2301;47.354;8.528;2023-03-14T07:58:51;13.60;64.50
4578;DHT22;2301;47.354;8.528;2023-03-14T08:01:18;13.40;63.70
4578;DHT22;2301;47.354;8.528;2023-03-14T08:03:44;13.30;64.10
4578;DHT22;2301;47.354;8.528;2023-03-14T08:06:11;13.10;64.10
4578;DHT22;2301;47.354;8.528;2023-03-14T08:08:40;13.00;65.90
4578;DHT22;2301;47.354;8.528;2023-03-14T08:11:07;12.90;65.10
4578;DHT22;2301;47.354;8.528;2023-03-14T08:13:35;12.90;64.90
4578;DHT22;2301;47.354;8.528;2023-03-14T08:16:02;12.80;65.00
4578;DHT22;2301;47.354;8.528;2023-03-14T08:18:29;12.70;65.00
4578;DHT22;2301;47.354;8.528;2023-03-14T08:20:56;12.70;65.20
4578;DHT22;2301;47.354;8.528;2023-03-14T08:23:23;12.70;65.20
4578;DHT22;2301;47.354;8.528;2023-03-14T08:25:52;12.70;65.50
4578;DHT22;2301;47.354;8.528;2023-03-14T08:28:19;12.60;65.60
4578;DHT22;2301;47.354;8.528;2023-03-14T08:30:46;12.60;65.70
4578;DHT22;2301;47.354;8.528;2023-03-14T08:33:12;12.60;66.00
4578;DHT22;2301;47.354;8.528;2023-03-14T08:35:41;12.50;67.00
4578;DHT22;2301;47.354;8.528;2023-03-14T08:38:11;12.50;66.30
4578;DHT22;2301;47.354;8.528;2023-03-14T08:40:38;12.50;66.60
4578;DHT22;2301;47.354;8.528;2023-03-14T08:43:06;12.50;66.80
4578;DHT22;2301;47.354;8.528;2023-03-14T08:45:33;12.50;67.10
4578;DHT22;2301;47.354;8.528;2023-03-14T08:48:00;12.60;67.20
4578;DHT22;2301;47.354;8.528;2023-03-14T08:50:27;12.60;67.50
4578;DHT22;2301;47.354;8.528;2023-03-14T08:52:54;12.60;67.30
4578;DHT22;2301;47.354;8.528;2023-03-14T08:55:23;12.70;67.50
4578;DHT22;2301;47.354;8.528;2023-03-14T08:57:50;12.80;67.60
4578;DHT22;2301;47.354;8.528;2023-03-14T09:00:20;12.80;67.70
4578;DHT22;2301;47.354;8.528;2023-03-14T09:02:47;12.90;67.70
4578;DHT22;2301;47.354;8.528;2023-03-14T09:05:14;12.90;67.90
4578;DHT22;2301;47.354;8.528;2023-03-14T09:07:40;13.00;67.90
4578;DHT22;2301;47.354;8.528;2023-03-14T09:10:09;13.10;68.00
4578;DHT22;2301;47.354;8.528;2023-03-14T09:12:36;13.00;67.90
4578;DHT22;2301;47.354;8.528;2023-03-14T09:15:04;13.00;67.80
4578;DHT22;2301;47.354;8.528;2023-03-14T09:17:32;12.90;68.00
4578;DHT22;2301;47.354;8.528;2023-03-14T09:19:59;12.80;68.20
4578;DHT22;2301;47.354;8.528;2023-03-14T09:22:26;12.80;68.30
4578;DHT22;2301;47.354;8.528;2023-03-14T09:24:53;12.70;68.70
4578;DHT22;2301;47.354;8.528;2023-03-14T09:27:20;12.70;69.20
4578;DHT22;2301;47.354;8.528;2023-03-14T09:29:47;12.70;69.30
4578;DHT22;2301;47.354;8.528;2023-03-14T09:32:14;12.70;69.50
4578;DHT22;2301;47.354;8.528;2023-03-14T09:34:42;13.10;78.30
4578;DHT22;2301;47.354;8.528;2023-03-14T09:37:09;13.20;72.20
4578;DHT22;2301;47.354;8.528;2023-03-14T09:39:36;13.10;70.00
4578;DHT22;2301;47.354;8.528;2023-03-14T09:42:06;12.90;68.60
4578;DHT22;2301;47.354;8.528;2023-03-14T09:44:37;12.90;69.60
4578;DHT22;2301;47.354;8.528;2023-03-14T09:47:07;12.90;69.90
4578;DHT22;2301;47.354;8.528;2023-03-14T09:49:37;12.90;70.00
4578;DHT22;2301;47.354;8.528;2023-03-14T09:52:10;13.00;70.20
4578;DHT22;2301;47.354;8.528;2023-03-14T09:54:40;13.10;70.70
4578;DHT22;2301;47.354;8.528;2023-03-14T09:57:12;13.00;70.00
4578;DHT22;2301;47.354;8.528;2023-03-14T09:59:41;13.10;70.30
4578;DHT22;2301;47.354;8.528;2023-03-14T10:02:15;13.20;70.80
4578;DHT22;2301;47.354;8.528;2023-03-14T10:04:44;13.20;70.10
4578;DHT22;2301;47.354;8.528;2023-03-14T10:07:18;13.10;69.50
4578;DHT22;2301;47.354;8.528;2023-03-14T10:09:49;13.10;69.60
4578;DHT22;2301;47.354;8.528;2023-03-14T10:12:16;13.00;69.40
4578;DHT22;2301;47.354;8.528;2023-03-14T10:14:49;12.80;69.00
4578;DHT22;2301;47.354;8.528;2023-03-14T10:17:18;12.70;69.80
4578;DHT22;2301;47.354;8.528;2023-03-14T10:19:53;12.70;70.20
4578;DHT22;2301;47.354;8.528;2023-03-14T10:22:22;12.60;70.50
4578;DHT22;2301;47.354;8.528;2023-03-14T10:24:53;12.50;70.10
4578;DHT22;2301;47.354;8.528;2023-03-14T10:27:23;12.50;70.70
4578;DHT22;2301;47.354;8.528;2023-03-14T10:29:54;12.60;71.30
4578;DHT22;2301;47.354;8.528;2023-03-14T10:32:27;12.50;71.60
4578;DHT22;2301;47.354;8.528;2023-03-14T10:35:11;12.50;72.00
4578;DHT22;2301;47.354;8.528;2023-03-14T10:37:50;12.50;72.10
4578;DHT22;2301;47.354;8.528;2023-03-14T10:40:22;12.50;73.80
4578;DHT22;2301;47.354;8.528;2023-03-14T10:42:51;12.60;74.30
4578;DHT22;2301;47.354;8.528;2023-03-14T10:45:35;12.70;74.10
4578;DHT22;2301;47.354;8.528;2023-03-14T10:48:18;12.80;74.80
4578;DHT22;2301;47.354;8.528;2023-03-14T10:50:53;12.80;73.90
4578;DHT22;2301;47.354;8.528;2023-03-14T10:53:22;12.80;73.60
4578;DHT22;2301;47.354;8.528;2023-03-14T10:55:49;12.60;73.00
4578;DHT22;2301;47.354;8.528;2023-03-14T10:58:19;12.50;73.40
4578;DHT22;2301;47.354;8.528;2023-03-14T11:00:47;12.40;74.00
4578;DHT22;2301;47.354;8.528;2023-03-14T11:03:16;12.30;73.90
4578;DHT22;2301;47.354;8.528;2023-03-14T11:05:51;12.30;74.50
4578;DHT22;2301;47.354;8.528;2023-03-14T11:08:27;12.30;75.30
4578;DHT22;2301;47.354;8.528;2023-03-14T11:11:02;12.30;75.40
4578;DHT22;2301;47.354;8.528;2023-03-14T11:13:33;12.20;75.90
4578;DHT22;2301;47.354;8.528;2023-03-14T11:16:11;12.10;76.40
4578;DHT22;2301;47.354;8.528;2023-03-14T11:19:15;12.00;76.20
4578;DHT22;2301;47.354;8.528;2023-03-14T11:21:49;11.90;76.90
4578;DHT22;2301;47.354;8.528;2023-03-14T11:24:44;11.70;77.20
4578;DHT22;2301;47.354;8.528;2023-03-14T11:27:18;11.70;77.90
4578;DHT22;2301;47.354;8.528;2023-03-14T11:29:54;11.60;79.10
4578;DHT22;2301;47.354;8.528;2023-03-14T11:32:33;11.50;79.10
4578;DHT22;2301;47.354;8.528;2023-03-14T11:35:03;11.50;79.40
4578;DHT22;2301;47.354;8.528;2023-03-14T11:37:34;11.40;79.30
4578;DHT22;2301;47.354;8.528;2023-03-14T11:40:12;11.30;78.40
4578;DHT22;2301;47.354;8.528;2023-03-14T11:42:43;11.20;78.40
4578;DHT22;2301;47.354;8.528;2023-03-14T11:45:16;11.10;77.80
4578;DHT22;2301;47.354;8.528;2023-03-14T11:47:47;10.90;77.80
4578;DHT22;2301;47.354;8.528;2023-03-14T11:50:17;10.90;78.30
4578;DHT22;2301;47.354;8.528;2023-03-14T11:52:49;10.90;78.10
4578;DHT22;2301;47.354;8.528;2023-03-14T11:55:23;10.80;78.50
4578;DHT22;2301;47.354;8.528;2023-03-14T11:57:53;10.80;78.20
4578;DHT22;2301;47.354;8.528;2023-03-14T12:00:23;10.80;78.40
4578;DHT22;2301;47.354;8.528;2023-03-14T12:02:56;10.70;79.40
4578;DHT22;2301;47.354;8.528;2023-03-14T12:05:38;10.80;79.70
4578;DHT22;2301;47.354;8.528;2023-03-14T12:08:30;10.70;79.20
4578;DHT22;2301;47.354;8.528;2023-03-14T12:11:04;10.60;79.60
4578;DHT22;2301;47.354;8.528;2023-03-14T12:13:33;10.60;79.00
4578;DHT22;2301;47.354;8.528;2023-03-14T12:16:04;10.50;79.70
4578;DHT22;2301;47.354;8.528;2023-03-14T12:18:33;10.60;78.90
4578;DHT22;2301;47.354;8.528;2023-03-14T12:21:05;10.60;78.80
4578;DHT22;2301;47.354;8.528;2023-03-14T12:23:37;10.60;78.60
4578;DHT22;2301;47.354;8.528;2023-03-14T12:26:14;10.60;78.20
4578;DHT22;2301;47.354;8.528;2023-03-14T12:28:44;10.70;77.50
4578;DHT22;2301;47.354;8.528;2023-03-14T12:31:38;10.70;77.40
4578;DHT22;2301;47.354;8.528;2023-03-14T12:34:27;10.70;76.40
4578;DHT22;2301;47.354;8.528;2023-03-14T12:37:14;10.70;75.30
4578;DHT22;2301;47.354;8.528;2023-03-14T12:39:56;10.80;76.20
4578;DHT22;2301;47.354;8.528;2023-03-14T12:42:40;10.80;76.70
4578;DHT22;2301;47.354;8.528;2023-03-14T12:45:28;10.70;76.60
4578;DHT22;2301;47.354;8.528;2023-03-14T12:48:09;10.60;76.60
4578;DHT22;2301;47.354;8.528;2023-03-14T12:50:43;10.50;76.20
4578;DHT22;2301;47.354;8.528;2023-03-14T12:53:51;10.40;74.80
4578;DHT22;2301;47.354;8.528;2023-03-14T12:56:28;10.50;74.70
4578;DHT22;2301;47.354;8.528;2023-03-14T12:59:28;10.40;75.20
4578;DHT22;2301;47.354;8.528;2023-03-14T13:01:59;10.40;76.50
4578;DHT22;2301;47.354;8.528;2023-03-14T13:04:32;10.40;76.60
4578;DHT22;2301;47.354;8.528;2023-03-14T13:07:00;10.30;77.70
4578;DHT22;2301;47.354;8.528;2023-03-14T13:09:52;10.10;78.20
4578;DHT22;2301;47.354;8.528;2023-03-14T13:12:25;10.10;78.70
4578;DHT22;2301;47.354;8.528;2023-03-14T13:14:59;10.20;78.60
4578;DHT22;2301;47.354;8.528;2023-03-14T13:17:31;10.20;78.50
4578;DHT22;2301;47.354;8.528;2023-03-14T13:20:02;10.20;78.90
4578;DHT22;2301;47.354;8.528;2023-03-14T13:22:33;10.20;79.20
4578;DHT22;2301;47.354;8.528;2023-03-14T13:25:04;10.10;78.70
4578;DHT22;2301;47.354;8.528;2023-03-14T13:27:33;10.20;78.80
4578;DHT22;2301;47.354;8.528;2023-03-14T13:30:15;10.20;80.10
4578;DHT22;2301;47.354;8.528;2023-03-14T13:32:43;10.20;79.20
4578;DHT22;2301;47.354;8.528;2023-03-14T13:35:19;10.30;78.90
4578;DHT22;2301;47.354;8.528;2023-03-14T13:37:46;10.40;79.60
4578;DHT22;2301;47.354;8.528;2023-03-14T13:40:23;10.30;78.60
4578;DHT22;2301;47.354;8.528;2023-03-14T13:43:01;10.40;79.20
4578;DHT22;2301;47.354;8.528;2023-03-14T13:45:30;10.40;78.60
4578;DHT22;2301;47.354;8.528;2023-03-14T13:47:57;10.40;78.20
4578;DHT22;2301;47.354;8.528;2023-03-14T13:50:24;10.40;78.00
4578;DHT22;2301;47.354;8.528;2023-03-14T13:52:55;10.40;78.10
4578;DHT22;2301;47.354;8.528;2023-03-14T13:55:23;10.30;77.80
4578;DHT22;2301;47.354;8.528;2023-03-14T13:57:51;10.30;77.20
4578;DHT22;2301;47.354;8.528;2023-03-14T14:00:22;10.40;77.10
4578;DHT22;2301;47.354;8.528;2023-03-14T14:02:53;10.40;76.50
4578;DHT22;2301;47.354;8.528;2023-03-14T14:05:21;10.40;76.60
4578;DHT22;2301;47.354;8.528;2023-03-14T14:07:49;10.40;76.80
4578;DHT22;2301;47.354;8.528;2023-03-14T14:10:17;10.40;76.00
4578;DHT22;2301;47.354;8.528;2023-03-14T14:12:47;10.40;76.10
4578;DHT22;2301;47.354;8.528;2023-03-14T14:15:19;10.50;75.50
4578;DHT22;2301;47.354;8.528;2023-03-14T14:17:50;10.60;75.90
4578;DHT22;2301;47.354;8.528;2023-03-14T14:20:23;10.70;75.90
4578;DHT22;2301;47.354;8.528;2023-03-14T14:22:52;10.70;74.10
4578;DHT22;2301;47.354;8.528;2023-03-14T14:25:19;10.70;74.20
4578;DHT22;2301;47.354;8.528;2023-03-14T14:27:48;10.80;74.20
4578;DHT22;2301;47.354;8.528;2023-03-14T14:30:28;10.90;74.20
4578;DHT22;2301;47.354;8.528;2023-03-14T14:33:11;10.90;72.50
4578;DHT22;2301;47.354;8.528;2023-03-14T14:35:40;11.00;72.00
4578;DHT22;2301;47.354;8.528;2023-03-14T14:38:12;11.10;73.20
4578;DHT22;2301;47.354;8.528;2023-03-14T14:40:47;11.30;72.10
4578;DHT22;2301;47.354;8.528;2023-03-14T14:43:18;11.40;71.30
4578;DHT22;2301;47.354;8.528;2023-03-14T14:45:48;11.50;70.90
4578;DHT22;2301;47.354;8.528;2023-03-14T14:48:19;11.60;69.00
4578;DHT22;2301;47.354;8.528;2023-03-14T14:50:56;11.60;67.60
4578;DHT22;2301;47.354;8.528;2023-03-14T14:53:28;11.50;65.10
4578;DHT22;2301;47.354;8.528;2023-03-14T14:55:57;11.50;65.40
4578;DHT22;2301;47.354;8.528;2023-03-14T14:58:26;11.40;64.80
4578;DHT22;2301;47.354;8.528;2023-03-14T15:00:56;11.40;64.30
4578;DHT22;2301;47.354;8.528;2023-03-14T15:03:27;11.40;64.30
4578;DHT22;2301;47.354;8.528;2023-03-14T15:05:56;11.30;63.70
4578;DHT22;2301;47.354;8.528;2023-03-14T15:08:26;11.40;63.40
4578;DHT22;2301;47.354;8.528;2023-03-14T15:10:56;11.40;62.70
4578;DHT22;2301;47.354;8.528;2023-03-14T15:13:27;11.40;63.30
4578;DHT22;2301;47.354;8.528;2023-03-14T15:15:54;11.40;62.90
4578;DHT22;2301;47.354;8.528;2023-03-14T15:18:23;11.40;63.30
4578;DHT22;2301;47.354;8.528;2023-03-14T15:20:50;11.50;63.80
4578;DHT22;2301;47.354;8.528;2023-03-14T15:23:20;11.40;63.50
4578;DHT22;2301;47.354;8.528;2023-03-14T15:25:48;11.40;63.60
4578;DHT22;2301;47.354;8.528;2023-03-14T15:28:17;11.40;63.30
4578;DHT22;2301;47.354;8.528;2023-03-14T15:30:45;11.40;63.30
4578;DHT22;2301;47.354;8.528;2023-03-14T15:33:12;11.40;63.60
4578;DHT22;2301;47.354;8.528;2023-03-14T15:35:39;11.40;63.70
4578;DHT22;2301;47.354;8.528;2023-03-14T15:38:10;11.40;63.90
4578;DHT22;2301;47.354;8.528;2023-03-14T15:40:39;11.40;63.90
4578;DHT22;2301;47.354;8.528;2023-03-14T15:43:08;11.40;63.90
4578;DHT22;2301;47.354;8.528;2023-03-14T15:45:38;11.30;63.20
4578;DHT22;2301;47.354;8.528;2023-03-14T15:48:14;11.30;63.30
4578;DHT22;2301;47.354;8.528;2023-03-14T15:50:45;11.20;64.70
4578;DHT22;2301;47.354;8.528;2023-03-14T15:53:14;11.10;64.10
4578;DHT22;2301;47.354;8.528;2023-03-14T15:55:45;11.00;64.80
4578;DHT22;2301;47.354;8.528;2023-03-14T15:58:15;11.10;65.90
4578;DHT22;2301;47.354;8.528;2023-03-14T16:00:42;11.10;66.50
4578;DHT22;2301;47.354;8.528;2023-03-14T16:03:09;11.10;67.40
4578;DHT22;2301;47.354;8.528;2023-03-14T16:05:37;11.10;68.40
4578;DHT22;2301;47.354;8.528;2023-03-14T16:08:05;11.10;68.30
4578;DHT22;2301;47.354;8.528;2023-03-14T16:10:32;11.00;68.10
4578;DHT22;2301;47.354;8.528;2023-03-14T16:13:01;11.00;68.70
4578;DHT22;2301;47.354;8.528;2023-03-14T16:15:28;11.00;69.50
4578;DHT22;2301;47.354;8.528;2023-03-14T16:17:55;11.00;70.10
4578;DHT22;2301;47.354;8.528;2023-03-14T16:20:22;10.90;69.00
4578;DHT22;2301;47.354;8.528;2023-03-14T16:22:51;11.00;68.80
4578;DHT22;2301;47.354;8.528;2023-03-14T16:25:18;10.90;67.40
4578;DHT22;2301;47.354;8.528;2023-03-14T16:27:45;11.00;68.20
4578;DHT22;2301;47.354;8.528;2023-03-14T16:30:13;11.00;68.70